Time;durP1;ratioP1;P1;durP2;ratioP2;P2;SDS_P1;SDS_P2;PMS_P1;PMS_P2;Temp;Humidity;BMP_temperature;BMP_pressure;BME280_temperature;BME280_humidity;BME280_pressure;Samples;Min_cycle;Max_cycle;Signal;HPM_P1;HPM_P2
2022/05/01 00:01:17;;;;;;;9.15;6.50;;;;;;;4.75;100.00;102636.72;5074857;28;20048;-28
2022/05/01 00:03:45;;;;;;;9.32;6.32;;;;;;;4.73;100.00;102630.56;5074047;28;20048;-29
2022/05/01 00:06:13;;;;;;;9.25;5.93;;;;;;;4.69;100.00;102629.28;5074681;28;20055;-30
2022/05/01 00:08:42;;;;;;;9.75;6.57;;;;;;;4.67;100.00;102631.41;5074510;28;20486;-31
2022/05/01 00:11:13;;;;;;;8.73;6.22;;;;;;;4.66;100.00;102621.41;5073680;28;20045;-27
2022/05/01 00:13:43;;;;;;;10.70;7.50;;;;;;;4.65;100.00;102630.78;5074860;28;20090;-30
2022/05/01 00:16:11;;;;;;;9.20;6.93;;;;;;;4.62;100.00;102628.44;5074357;28;20048;-24
2022/05/01 00:18:40;;;;;;;8.63;5.80;;;;;;;4.60;100.00;102623.13;5073569;28;20497;-29
2022/05/01 00:21:08;;;;;;;6.72;4.95;;;;;;;4.59;100.00;102620.59;5074289;28;20063;-26
2022/05/01 00:23:36;;;;;;;9.25;6.03;;;;;;;4.57;100.00;102619.97;5073736;28;20060;-32
2022/05/01 00:26:05;;;;;;;10.68;7.18;;;;;;;4.53;100.00;102625.06;5073835;28;20041;-26
2022/05/01 00:28:36;;;;;;;10.70;7.90;;;;;;;4.49;100.00;102621.88;5074164;28;20051;-30
2022/05/01 00:31:05;;;;;;;11.82;7.80;;;;;;;4.46;100.00;102619.56;5073856;28;20044;-27
2022/05/01 00:36:28;;;;;;;10.93;7.15;;;;;;;4.41;100.00;102622.09;5072801;28;20401;-28
2022/05/01 00:39:00;;;;;;;11.70;7.72;;;;;;;4.39;100.00;102618.72;5073617;28;20126;-26
2022/05/01 00:41:28;;;;;;;10.38;7.47;;;;;;;4.36;100.00;102613.63;5074148;28;20056;-24
2022/05/01 00:44:00;;;;;;;10.00;7.13;;;;;;;4.35;100.00;102611.94;5073940;28;20055;-31
2022/05/01 00:46:28;;;;;;;12.05;7.82;;;;;;;4.32;100.00;102614.25;5073219;28;20052;-27
2022/05/01 00:48:57;;;;;;;9.88;6.65;;;;;;;4.29;100.00;102615.53;5073708;28;20056;-27
2022/05/01 00:51:26;;;;;;;10.00;6.88;;;;;;;4.27;100.00;102612.13;5073831;28;20044;-28
2022/05/01 00:53:54;;;;;;;9.00;6.95;;;;;;;4.24;100.00;102608.94;5073253;28;20047;-28
2022/05/01 00:56:21;;;;;;;8.07;5.85;;;;;;;4.22;100.00;102611.06;5073729;28;20052;-31
2022/05/01 00:58:49;;;;;;;8.82;6.20;;;;;;;4.20;100.00;102608.53;5073660;28;20076;-29
2022/05/01 01:01:19;;;;;;;8.57;5.88;;;;;;;4.19;100.00;102601.31;5072762;28;20066;-34
2022/05/01 01:03:48;;;;;;;8.23;5.75;;;;;;;4.16;100.00;102596.22;5073671;28;20073;-27
2022/05/01 01:06:16;;;;;;;10.10;6.47;;;;;;;4.14;100.00;102593.69;5072891;28;20044;-25
2022/05/01 01:08:44;;;;;;;9.55;6.63;;;;;;;4.14;100.00;102595.59;5073478;28;20082;-30
2022/05/01 01:11:12;;;;;;;9.23;6.10;;;;;;;4.12;100.00;102597.72;5073267;28;20040;-31
2022/05/01 01:13:40;;;;;;;7.78;5.63;;;;;;;4.10;100.00;102586.88;5072531;28;20486;-31
2022/05/01 01:16:09;;;;;;;9.13;5.57;;;;;;;4.09;100.00;102587.09;5073357;28;20052;-27
2022/05/01 01:18:39;;;;;;;11.45;8.07;;;;;;;4.07;100.00;102591.97;5073415;28;20493;-27
2022/05/01 01:21:10;;;;;;;10.63;6.63;;;;;;;4.04;100.00;102592.41;5072425;28;20056;-31
2022/05/01 01:23:39;;;;;;;8.40;5.93;;;;;;;4.02;100.00;102589.00;5073099;28;20079;-28
2022/05/01 01:26:08;;;;;;;7.43;5.60;;;;;;;3.99;100.00;102594.97;5072997;28;20055;-26
2022/05/01 01:28:38;;;;;;;7.90;6.05;;;;;;;3.96;100.00;102589.88;5072171;28;20124;-28
2022/05/01 01:33:56;;;;;;;8.80;5.97;;;;;;;3.93;100.00;102593.03;5072096;28;20135;-29
2022/05/01 01:36:28;;;;;;;7.75;5.68;;;;;;;3.92;100.00;102594.09;5072141;28;20131;-29
2022/05/01 01:38:56;;;;;;;;;;;;;;;3.86;100.00;102590.28;5073223;28;20398;-24
2022/05/01 01:41:28;;;;;;;9.95;6.45;;;;;;;3.81;100.00;102599.19;5072339;28;20015;-30
2022/05/01 01:43:57;;;;;;;8.68;5.80;;;;;;;3.81;100.00;102596.44;5072823;28;20063;-29
2022/05/01 01:46:25;;;;;;;8.65;6.00;;;;;;;3.82;100.00;102602.81;5072727;28;20042;-29
2022/05/01 01:48:53;;;;;;;8.20;6.28;;;;;;;3.80;100.00;102600.25;5071952;28;20152;-25
2022/05/01 01:51:21;;;;;;;9.13;6.47;;;;;;;3.80;100.00;102596.63;5072476;28;20059;-25
2022/05/01 01:53:52;;;;;;;11.30;7.80;;;;;;;3.79;100.00;102595.81;5072751;28;20063;-25
2022/05/01 01:56:19;;;;;;;9.00;7.18;;;;;;;3.76;100.00;102599.00;5071985;28;20051;-30
2022/05/01 01:58:47;;;;;;;7.88;5.60;;;;;;;3.75;100.00;102602.81;5072511;28;20040;-32
2022/05/01 02:01:15;;;;;;;8.63;6.22;;;;;;;3.74;100.00;102594.75;5072448;28;20052;-26
2022/05/01 02:03:43;;;;;;;9.10;6.50;;;;;;;3.74;100.00;102592.84;5071634;28;20048;-27
2022/05/01 02:06:11;;;;;;;8.82;6.10;;;;;;;3.74;100.00;102592.84;5072346;28;20110;-30
2022/05/01 02:08:40;;;;;;;8.43;6.53;;;;;;;3.73;100.00;102593.91;5072365;28;20048;-27
2022/05/01 02:11:10;;;;;;;10.88;7.63;;;;;;;3.73;100.00;102585.63;5071387;28;20498;-25
2022/05/01 02:13:38;;;;;;;10.68;7.38;;;;;;;3.73;100.00;102588.38;5072415;28;20045;-31
2022/05/01 02:16:06;;;;;;;12.70;8.27;;;;;;;3.73;100.00;102579.25;5072099;28;20072;-29
2022/05/01 02:18:34;;;;;;;9.63;6.93;;;;;;;3.73;100.00;102573.72;5071711;28;20099;-27
2022/05/01 02:23:48;;;;;;;10.20;7.05;;;;;;;3.70;100.00;102575.00;5071554;28;20040;-30
2022/05/01 02:26:18;;;;;;;11.35;7.72;;;;;;;3.71;100.00;102584.13;5071975;28;20062;-29
2022/05/01 02:28:46;;;;;;;9.00;6.60;;;;;;;3.69;100.00;102577.97;5071902;28;20052;-28
2022/05/01 02:31:13;;;;;;;9.75;5.88;;;;;;;3.67;100.00;102575.41;5070414;28;20063;-28
2022/05/01 02:33:41;;;;;;;11.77;8.27;;;;;;;3.67;100.00;102574.56;5071269;28;20084;-29
2022/05/01 02:36:09;;;;;;;11.40;7.68;;;;;;;3.64;100.00;102572.22;5072154;28;20056;-29
2022/05/01 02:38:37;;;;;;;9.52;6.72;;;;;;;3.64;100.00;102567.53;5071173;28;20441;-29
2022/05/01 02:41:04;;;;;;;13.65;9.65;;;;;;;3.63;100.00;102565.84;5071921;28;20067;-30
2022/05/01 02:43:33;;;;;;;10.40;6.80;;;;;;;3.63;100.00;102568.59;5071823;28;20057;-32
2022/05/01 02:46:01;;;;;;;11.25;7.28;;;;;;;3.62;100.00;102572.41;5071104;28;20045;-28
2022/05/01 02:48:29;;;;;;;8.85;6.60;;;;;;;3.62;100.00;102571.56;5072064;28;20406;-29
2022/05/01 02:50:57;;;;;;;10.30;7.18;;;;;;;3.62;100.00;102575.19;5071812;28;20413;-28
2022/05/01 02:53:25;;;;;;;9.77;6.93;;;;;;;3.59;100.00;102567.34;5070996;28;20057;-29
2022/05/01 02:55:52;;;;;;;12.23;8.60;;;;;;;3.58;100.00;102568.41;5071642;28;20405;-34
2022/05/01 02:58:20;;;;;;;9.43;6.65;;;;;;;3.57;100.00;102568.63;5071763;28;20048;-27
2022/05/01 03:00:49;;;;;;;9.48;7.03;;;;;;;3.54;100.00;102564.38;5071100;28;20051;-30
2022/05/01 03:03:17;;;;;;;8.98;6.32;;;;;;;3.53;100.00;102561.81;5071796;28;20039;-30
2022/05/01 03:05:45;;;;;;;8.32;5.95;;;;;;;3.51;100.00;102563.94;5071710;28;20144;-25
2022/05/01 03:08:13;;;;;;;8.15;5.55;;;;;;;3.49;100.00;102560.53;5071500;28;20071;-26
2022/05/01 03:10:41;;;;;;;6.97;5.43;;;;;;;3.49;100.00;102564.13;5071696;28;20040;-27
2022/05/01 03:13:10;;;;;;;10.20;7.53;;;;;;;3.48;100.00;102556.91;5071048;28;20104;-29
2022/05/01 03:15:38;;;;;;;8.63;6.38;;;;;;;3.47;100.00;102557.97;5071697;28;20142;-27
2022/05/01 03:23:53;;;;;;;11.38;8.07;;;;;;;3.43;100.00;102552.03;4989948;28;20057;-28
2022/05/01 03:26:20;;;;;;;10.85;7.70;;;;;;;3.43;100.00;102553.94;5036333;28;20044;-27
2022/05/01 03:28:48;;;;;;;11.13;7.97;;;;;;;3.43;100.00;102551.19;5070696;28;20050;-24
2022/05/01 03:31:17;;;;;;;10.45;7.13;;;;;;;3.43;100.00;102559.44;5071259;28;20060;-27
2022/05/01 03:33:47;;;;;;;8.85;6.68;;;;;;;3.42;100.00;102555.84;5071256;28;20551;-25
2022/05/01 03:36:15;;;;;;;10.38;6.85;;;;;;;3.41;100.00;102553.28;5070650;28;20060;-26
2022/05/01 03:38:43;;;;;;;11.95;6.60;;;;;;;3.41;100.00;102558.81;5071220;28;20493;-24
2022/05/01 03:41:15;;;;;;;9.65;6.50;;;;;;;3.40;100.00;102552.44;5070531;28;20056;-25
2022/05/01 03:43:43;;;;;;;9.13;6.72;;;;;;;3.41;100.00;102561.56;5071266;28;20040;-28
2022/05/01 03:46:11;;;;;;;9.27;6.60;;;;;;;3.40;100.00;102555.19;5071470;28;20050;-27
2022/05/01 03:48:39;;;;;;;7.95;5.63;;;;;;;3.39;100.00;102553.53;5070575;28;20493;-31
2022/05/01 03:51:08;;;;;;;8.07;5.50;;;;;;;3.40;100.00;102557.09;5071270;28;20067;-24
2022/05/01 03:53:36;;;;;;;8.25;6.32;;;;;;;3.39;100.00;102555.44;5071250;28;20055;-28
2022/05/01 03:56:04;;;;;;;8.43;5.63;;;;;;;3.39;100.00;102563.72;5070195;28;20048;-30
2022/05/01 03:58:31;;;;;;;8.68;5.63;;;;;;;3.40;100.00;102568.16;5073691;28;20059;-29
2022/05/01 04:00:59;;;;;;;7.47;5.00;;;;;;;3.40;100.00;102565.38;5074572;28;20045;-24
2022/05/01 04:03:28;;;;;;;6.45;5.40;;;;;;;3.40;100.00;102566.25;5073745;28;20045;-30
2022/05/01 04:05:56;;;;;;;5.95;4.65;;;;;;;3.41;100.00;102565.19;5074392;28;20045;-25
2022/05/01 04:08:26;;;;;;;7.30;5.18;;;;;;;3.43;100.00;102567.72;5074377;28;20059;-26
2022/05/01 04:10:53;;;;;;;8.32;5.75;;;;;;;3.44;100.00;102569.44;5073504;28;20048;-23
2022/05/01 04:13:21;;;;;;;8.18;6.47;;;;;;;3.44;100.00;102570.28;5074557;28;20524;-30
2022/05/01 04:15:49;;;;;;;7.60;5.35;;;;;;;3.45;100.00;102573.91;5074497;28;20140;-29
2022/05/01 04:18:17;;;;;;;8.73;6.10;;;;;;;3.45;100.00;102571.97;5073608;28;20059;-29
2022/05/01 04:20:45;;;;;;;7.97;6.28;;;;;;;3.47;100.00;102574.53;5074171;28;20059;-25
2022/05/01 04:23:14;;;;;;;9.10;6.45;;;;;;;3.48;100.00;102567.97;5073456;28;20504;-31
2022/05/01 04:25:43;;;;;;;7.85;6.10;;;;;;;3.50;100.00;102571.38;5056266;28;20175;-27
2022/05/01 04:28:12;;;;;;;6.93;5.13;;;;;;;3.54;100.00;102563.50;5074313;28;20080;-27
2022/05/01 04:30:41;;;;;;;7.07;5.57;;;;;;;3.54;100.00;102567.13;5073552;28;20403;-30
2022/05/01 04:33:10;;;;;;;8.82;6.75;;;;;;;3.56;100.00;102567.78;5074173;28;20516;-32
2022/05/01 04:35:42;;;;;;;51.38;13.07;;;;;;;3.61;100.00;102570.72;5073964;28;20077;-32
2022/05/01 04:38:12;;;;;;;30.92;10.05;;;;;;;3.65;100.00;102566.47;5073411;28;20511;-24
2022/05/01 04:40:43;;;;;;;27.65;9.55;;;;;;;3.70;100.00;102576.91;5074121;28;20064;-30
2022/05/01 04:43:12;;;;;;;31.45;10.98;;;;;;;3.72;100.00;102570.09;5074115;28;20382;-28
2022/05/01 04:45:43;;;;;;;21.80;9.60;;;;;;;3.78;100.00;102568.41;5073079;28;20045;-28
2022/05/01 04:48:12;;;;;;;25.90;9.07;;;;;;;3.82;100.00;102569.66;5073804;28;20056;-29
2022/05/01 04:50:41;;;;;;;22.08;9.27;;;;;;;3.87;100.00;102571.78;5073994;28;20052;-29
2022/05/01 04:53:11;;;;;;;13.27;8.05;;;;;;;3.93;100.00;102573.72;5072479;28;20417;-29
2022/05/01 04:55:39;;;;;;;17.25;8.65;;;;;;;3.99;100.00;102579.25;5073730;28;20040;-26
2022/05/01 04:58:10;;;;;;;22.25;11.18;;;;;;;4.06;100.00;102587.50;5073281;28;20131;-30
2022/05/01 05:00:38;;;;;;;18.30;9.60;;;;;;;4.11;100.00;102587.72;5071521;28;20052;-26
2022/05/01 05:03:06;;;;;;;19.08;8.25;;;;;;;4.18;100.00;102584.97;5072253;28;20144;-33
2022/05/01 05:05:35;;;;;;;15.98;8.07;;;;;;;4.24;100.00;102584.94;5071753;28;20082;-29
2022/05/01 05:10:45;;;;;;;13.05;8.40;;;;;;;4.43;100.00;102586.81;5071393;28;20063;-30
2022/05/01 05:13:15;;;;;;;11.48;7.72;;;;;;;4.54;100.00;102592.75;5071344;28;20067;-28
2022/05/01 05:15:43;;;;;;;16.00;8.38;;;;;;;4.63;100.00;102585.91;5071972;28;20503;-31
2022/05/01 05:18:11;;;;;;;14.02;9.27;;;;;;;4.72;100.00;102596.53;5070290;28;20123;-23
2022/05/01 05:20:39;;;;;;;13.82;8.93;;;;;;;4.83;100.00;102595.81;5071192;28;20067;-30
2022/05/01 05:23:07;;;;;;;13.60;9.50;;;;;;;4.94;100.00;102590.69;5071801;28;20044;-33
2022/05/01 05:25:34;;;;;;;15.57;10.43;;;;;;;5.05;100.00;102596.38;5070483;28;20056;-28
2022/05/01 05:28:06;;;;;;;18.33;11.45;;;;;;;5.15;100.00;102591.22;5071038;28;20052;-36
2022/05/01 05:30:36;;;;;;;15.05;10.23;;;;;;;5.28;100.00;102595.84;5071438;28;20421;-26
2022/05/01 05:33:04;;;;;;;13.73;10.05;;;;;;;5.42;100.00;102591.06;5072069;28;20052;-31
2022/05/01 05:35:32;;;;;;;17.50;11.80;;;;;;;5.55;100.00;102593.75;5070534;28;20456;-24
2022/05/01 05:38:00;;;;;;;13.93;10.25;;;;;;;5.69;100.00;102588.97;5071813;28;20543;-31
2022/05/01 05:40:27;;;;;;;15.18;9.90;;;;;;;5.82;100.00;102594.41;5071552;28;20056;-31
2022/05/01 05:42:55;;;;;;;13.25;9.82;;;;;;;5.95;100.00;102587.94;5071466;28;20482;-29
2022/05/01 05:45:23;;;;;;;14.00;9.75;;;;;;;6.09;100.00;102592.28;5071683;28;20386;-29
2022/05/01 05:47:53;;;;;;;13.88;10.23;;;;;;;6.23;100.00;102597.47;5070612;28;20048;-27
2022/05/01 05:50:21;;;;;;;14.70;10.10;;;;;;;6.37;100.00;102595.44;5071499;28;20040;-30
2022/05/01 05:52:49;;;;;;;13.45;9.57;;;;;;;6.50;100.00;102598.06;5071394;28;20048;-31
2022/05/01 05:55:17;;;;;;;11.13;8.75;;;;;;;6.64;100.00;102598.75;5070837;28;20062;-29
2022/05/01 05:57:45;;;;;;;13.02;9.75;;;;;;;6.78;100.00;102594.78;5069326;28;20133;-30
2022/05/01 06:00:13;;;;;;;15.07;10.63;;;;;;;6.93;100.00;102599.94;5067024;28;20053;-25
2022/05/01 06:02:42;;;;;;;10.70;8.05;;;;;;;7.08;100.00;102596.75;5070299;28;20048;-26
2022/05/01 06:05:11;;;;;;;10.48;7.45;;;;;;;7.20;100.00;102600.41;5063751;28;20475;-30
2022/05/01 06:07:39;;;;;;;10.13;6.85;;;;;;;7.30;100.00;102586.84;5068046;28;20063;-26
2022/05/01 06:10:07;;;;;;;7.97;6.30;;;;;;;7.40;100.00;102598.19;5070766;28;20047;-33
2022/05/01 06:12:41;;;;;;;10.38;8.23;;;;;;;7.52;100.00;102595.50;5069841;28;20060;-32
2022/05/01 06:15:10;;;;;;;9.68;7.10;;;;;;;7.63;100.00;102594.66;5066569;28;20494;-30
2022/05/01 06:17:38;;;;;;;10.70;6.78;;;;;;;7.76;100.00;102594.47;5059452;28;20130;-32
2022/05/01 06:23:36;;;;;;;10.60;7.78;;;;;;;8.06;100.00;102599.09;5068235;28;20048;-30
2022/05/01 06:26:05;;;;;;;8.52;6.50;;;;;;;8.23;100.00;102597.31;5056532;28;20058;-30
2022/05/01 06:28:33;;;;;;;10.80;6.38;;;;;;;8.41;100.00;102602.78;5061514;28;20062;-35
2022/05/01 06:31:02;;;;;;;7.93;5.78;;;;;;;8.57;100.00;102602.06;5069306;28;20140;-29
2022/05/01 06:33:31;;;;;;;7.53;5.90;;;;;;;8.73;100.00;102599.63;5055938;28;20139;-30
2022/05/01 06:35:59;;;;;;;12.93;7.38;;;;;;;8.91;100.00;102599.47;5046762;28;20344;-34
2022/05/01 06:38:27;;;;;;;9.48;6.35;;;;;;;9.25;100.00;102601.28;5057891;28;20394;-29
2022/05/01 06:40:56;;;;;;;7.78;5.88;;;;;;;9.56;100.00;102611.09;5051144;28;20365;-29
2022/05/01 06:43:27;;;;;;;8.32;6.03;;;;;;;9.79;100.00;102603.72;5052235;28;20041;-31
2022/05/01 06:45:54;;;;;;;6.78;5.55;;;;;;;10.04;100.00;102606.94;5040267;28;20053;-27
2022/05/01 06:48:23;;;;;;;8.80;6.10;;;;;;;10.29;100.00;102606.53;5054885;28;20515;-31
2022/05/01 06:50:51;;;;;;;12.48;7.38;;;;;;;10.50;100.00;102607.72;5052329;28;20052;-31
2022/05/01 06:53:19;;;;;;;8.25;6.00;;;;;;;10.68;100.00;102604.63;5044218;28;20143;-30
2022/05/01 06:55:47;;;;;;;9.35;6.00;;;;;;;10.92;100.00;102608.03;5049950;28;20057;-28
2022/05/01 06:58:18;;;;;;;8.27;5.35;;;;;;;11.25;100.00;102605.09;5054900;28;20045;-28
2022/05/01 07:00:46;;;;;;;6.95;5.00;;;;;;;11.53;100.00;102609.63;5056469;28;20053;-28
2022/05/01 07:03:14;;;;;;;6.85;5.15;;;;;;;11.59;100.00;102602.13;5055531;28;20059;-25
2022/05/01 07:05:42;;;;;;;6.22;5.38;;;;;;;11.67;100.00;102596.06;5054219;28;20506;-26
2022/05/01 07:08:10;;;;;;;6.47;4.43;;;;;;;11.79;100.00;102593.94;5052086;28;20036;-27
2022/05/01 07:10:38;;;;;;;7.40;4.85;;;;;;;11.82;100.00;102589.78;5040338;28;20060;-33
2022/05/01 07:13:06;;;;;;;6.93;4.80;;;;;;;11.92;100.00;102584.31;5052438;28;20051;-27
2022/05/01 07:15:35;;;;;;;6.85;4.47;;;;;;;12.02;99.00;102593.63;5056362;28;20395;-32
2022/05/01 07:18:03;;;;;;;5.97;4.53;;;;;;;12.12;96.00;102595.66;5046773;28;20044;-29
2022/05/01 07:20:33;;;;;;;6.15;4.10;;;;;;;12.29;96.37;102589.91;5045752;28;20053;-31
2022/05/01 07:23:01;;;;;;;6.60;4.28;;;;;;;12.64;95.75;102598.56;5054077;28;20052;-25
2022/05/01 07:25:29;;;;;;;6.88;4.72;;;;;;;12.99;93.87;102589.50;5042002;28;20053;-33
2022/05/01 07:27:57;;;;;;;6.85;5.32;;;;;;;13.27;91.98;102582.63;5052635;28;20091;-30
2022/05/01 07:30:24;;;;;;;7.60;4.80;;;;;;;13.44;89.46;102586.03;5042825;28;20109;-27
2022/05/01 07:32:54;;;;;;;6.38;4.72;;;;;;;13.62;87.79;102595.06;5053497;28;20056;-29
2022/05/01 07:35:21;;;;;;;6.63;4.47;;;;;;;13.94;87.78;102590.06;5027216;28;20047;-27
2022/05/01 07:37:49;;;;;;;8.63;4.40;;;;;;;14.36;86.22;102586.13;5052737;28;20042;-27
2022/05/01 07:40:17;;;;;;;8.63;4.20;;;;;;;14.58;81.33;102583.88;5047298;28;20059;-26
2022/05/01 07:42:45;;;;;;;6.63;4.47;;;;;;;14.47;79.71;102585.84;5046726;28;20052;-30
2022/05/01 07:45:13;;;;;;;8.10;4.18;;;;;;;14.46;78.82;102584.16;5056070;28;20083;-28
2022/05/01 07:47:40;;;;;;;5.88;4.20;;;;;;;14.59;78.98;102577.09;5049351;28;20512;-31
2022/05/01 07:50:11;;;;;;;5.97;3.80;;;;;;;14.76;76.98;102586.09;5045744;28;20055;-29
2022/05/01 07:52:40;;;;;;;;;;;;;;;14.88;73.65;102587.72;5048809;28;20045;-30
2022/05/01 07:55:09;;;;;;;6.93;4.45;;;;;;;15.19;76.64;102583.63;5059222;28;19924;-28
2022/05/01 07:57:36;;;;;;;5.85;3.88;;;;;;;15.68;73.97;102588.47;5048350;28;20128;-28
2022/05/01 08:00:06;;;;;;;6.15;4.00;;;;;;;16.15;73.51;102580.22;5056556;28;20040;-28
2022/05/01 08:02:35;;;;;;;4.85;2.88;;;;;;;16.64;69.78;102573.56;5044491;28;20076;-31
2022/05/01 08:05:02;;;;;;;5.18;3.80;;;;;;;16.72;66.55;102575.75;5050963;28;20046;-27
2022/05/01 08:07:31;;;;;;;7.45;3.90;;;;;;;16.73;65.08;102576.59;5044789;28;20491;-31
2022/05/01 08:09:59;;;;;;;5.90;3.85;;;;;;;16.88;64.61;102570.75;5041236;28;20347;-30
2022/05/01 08:12:27;;;;;;;5.07;3.65;;;;;;;17.43;64.41;102574.00;5047566;28;20073;-29
2022/05/01 08:14:55;;;;;;;5.40;3.38;;;;;;;17.90;60.70;102568.22;5054780;28;20512;-29
2022/05/01 08:17:23;;;;;;;6.10;3.30;;;;;;;18.13;60.04;102574.06;5060621;28;20401;-32
2022/05/01 08:22:37;;;;;;;7.50;3.58;;;;;;;18.86;58.88;102570.47;5064817;28;20047;-26
2022/05/01 08:25:06;;;;;;;3.92;3.25;;;;;;;19.50;57.43;102566.53;5062051;28;20045;-27
2022/05/01 08:27:34;;;;;;;4.40;2.92;;;;;;;19.78;54.51;102569.31;5045786;28;20054;-28
2022/05/01 08:30:02;;;;;;;843.78;161.80;;;;;;;19.57;52.56;102569.78;5054098;28;20052;-27
2022/05/01 08:32:29;;;;;;;215.52;44.60;;;;;;;19.32;54.23;102556.19;5045277;28;20063;-31
2022/05/01 08:34:57;;;;;;;186.13;39.58;;;;;;;19.51;53.31;102571.06;5054993;28;20048;-30
2022/05/01 08:37:25;;;;;;;655.97;141.38;;;;;;;19.66;51.79;102572.69;5044662;28;20045;-24
2022/05/01 08:39:54;;;;;;;204.43;47.58;;;;;;;20.02;51.23;102563.31;5033817;28;20044;-29
2022/05/01 08:42:23;;;;;;;40.20;13.02;;;;;;;20.38;49.95;102566.09;5059789;28;20060;-28
2022/05/01 08:44:51;;;;;;;12.95;5.65;;;;;;;20.09;47.00;102563.69;5041931;28;20056;-24
2022/05/01 08:47:24;;;;;;;6.00;3.50;;;;;;;19.61;47.45;102564.31;5057395;28;20147;-27
2022/05/01 08:49:56;;;;;;;6.60;3.80;;;;;;;19.14;47.30;102560.81;5055367;28;20436;-28
2022/05/01 08:52:24;;;;;;;5.47;3.00;;;;;;;18.91;48.28;102559.88;5050493;28;20044;-29
2022/05/01 08:54:54;;;;;;;3.80;2.97;;;;;;;18.63;47.84;102555.34;5050587;28;20058;-27
2022/05/01 08:57:23;;;;;;;5.07;2.80;;;;;;;18.26;48.97;102547.81;5045922;28;20056;-25
2022/05/01 08:59:53;;;;;;;4.70;2.83;;;;;;;17.97;49.41;102559.38;5050102;28;20048;-24
2022/05/01 09:02:21;;;;;;;4.97;3.15;;;;;;;17.94;50.28;102554.31;5048047;28;20049;-25
2022/05/01 09:04:49;;;;;;;4.95;3.33;;;;;;;18.04;49.72;102554.13;5046964;28;20611;-29
2022/05/01 09:07:17;;;;;;;4.22;3.05;;;;;;;18.16;50.14;102553.66;5048928;28;20060;-24
2022/05/01 09:09:45;;;;;;;4.88;3.08;;;;;;;18.49;50.29;102558.13;5060235;28;20059;-22
2022/05/01 09:15:00;;;;;;;4.30;3.17;;;;;;;19.49;49.73;102545.00;5047877;28;20042;-24
2022/05/01 09:17:27;;;;;;;4.55;3.22;;;;;;;19.89;48.88;102548.06;5050347;28;20049;-27
2022/05/01 09:20:07;;;;;;;5.68;3.13;;;;;;;20.50;46.09;102555.81;5045805;28;20483;-25
2022/05/01 09:22:49;;;;;;;4.38;2.67;;;;;;;20.88;44.20;102559.00;5041370;28;20063;-22
2022/05/01 09:25:19;;;;;;;6.88;2.70;;;;;;;20.95;42.54;102550.84;5042639;28;20890;-28
2022/05/01 09:27:49;;;;;;;5.43;3.08;;;;;;;20.96;42.51;102546.84;5060709;28;20056;-28
2022/05/01 09:30:20;;;;;;;5.45;3.13;;;;;;;20.55;42.17;102549.19;5047083;28;20063;-25
2022/05/01 09:32:48;;;;;;;3.80;2.88;;;;;;;20.22;43.74;102546.63;5053116;28;20057;-31
2022/05/01 09:35:26;;;;;;;5.80;3.38;;;;;;;19.90;44.16;102555.41;5045444;28;20263;-28
2022/05/01 09:38:10;;;;;;;5.47;3.65;;;;;;;19.53;44.44;102550.91;5040711;28;20050;-30
2022/05/01 09:40:38;;;;;;;5.35;2.85;;;;;;;19.14;46.96;102554.31;5044025;28;20057;-27
2022/05/01 09:43:07;;;;;;;5.63;3.30;;;;;;;19.12;47.62;102553.78;5054920;28;20041;-29
2022/05/01 09:45:35;;;;;;;4.38;2.95;;;;;;;19.31;47.74;102559.31;5047343;28;20081;-25
2022/05/01 09:48:20;;;;;;;4.28;3.35;;;;;;;19.66;45.55;102552.03;5054762;28;20045;-26
2022/05/01 09:50:48;;;;;;;4.10;2.67;;;;;;;19.87;46.75;102551.19;5045006;28;20053;-32
2022/05/01 09:53:16;;;;;;;6.32;3.33;;;;;;;20.11;45.35;102550.88;5054055;28;20298;-29
2022/05/01 09:55:44;;;;;;;4.20;2.78;;;;;;;20.11;42.64;102541.53;5044389;28;20347;-23
2022/05/01 09:58:15;;;;;;;5.53;2.70;;;;;;;19.93;41.47;102549.94;5054664;28;20050;-28
2022/05/01 10:00:45;;;;;;;3.00;2.10;;;;;;;19.79;42.19;102548.28;5043905;28;20392;-29
2022/05/01 10:03:20;;;;;;;5.30;2.73;;;;;;;20.00;40.51;102549.47;5054593;28;20054;-27
2022/05/01 10:05:49;;;;;;;4.10;2.67;;;;;;;20.12;41.40;102551.72;5059459;28;20072;-24
2022/05/01 10:08:18;;;;;;;3.97;2.63;;;;;;;20.26;40.60;102541.13;5048605;28;20056;-30
2022/05/01 10:10:47;;;;;;;4.82;2.67;;;;;;;20.27;40.14;102540.81;5059089;28;20254;-23
2022/05/01 10:13:17;;;;;;;5.68;3.90;;;;;;;20.42;41.38;102544.44;5059990;28;20048;-27
2022/05/01 10:16:06;;;;;;;4.13;2.67;;;;;;;20.16;43.00;102538.59;5044013;28;20482;-23
2022/05/01 10:18:35;;;;;;;6.43;3.70;;;;;;;20.13;43.45;102531.56;5054416;28;20063;-24
2022/05/01 10:21:04;;;;;;;3.90;2.20;;;;;;;20.18;43.40;102537.06;5043890;28;20485;-26
2022/05/01 10:23:33;;;;;;;4.93;3.33;;;;;;;20.18;43.29;102528.56;5061689;28;20106;-28
2022/05/01 10:26:07;;;;;;;3.15;2.55;;;;;;;20.17;43.11;102535.44;5039194;28;20434;-26
2022/05/01 10:29:13;;;;;;;4.53;3.20;;;;;;;20.24;41.71;102530.13;5048618;28;20041;-30
2022/05/01 10:32:21;;;;;;;6.40;3.47;;;;;;;20.23;42.54;102528.44;5058765;28;20405;-23
2022/05/01 10:35:26;;;;;;;6.25;3.78;;;;;;;20.49;43.83;102524.94;5039397;28;20045;-27
2022/05/01 10:38:07;;;;;;;2.95;2.40;;;;;;;20.83;43.43;102529.94;5045690;28;20105;-32
2022/05/01 10:40:41;;;;;;;3.42;2.97;;;;;;;21.08;43.05;102523.50;5046216;28;20447;-25
2022/05/01 10:43:29;;;;;;;4.90;3.10;;;;;;;21.57;41.18;102518.59;5046632;28;20052;-22
2022/05/01 10:46:00;;;;;;;3.65;2.30;;;;;;;22.00;40.56;102513.72;5046259;28;20036;-25
2022/05/01 10:48:36;;;;;;;4.13;2.47;;;;;;;22.58;38.96;102512.22;5048434;28;20058;-25
2022/05/01 10:51:41;;;;;;;5.35;2.75;;;;;;;22.81;36.67;102524.22;5044789;28;20553;-29
2022/05/01 10:54:39;;;;;;;4.78;2.70;;;;;;;22.92;37.03;102519.81;5041323;28;20082;-32
2022/05/01 10:57:13;;;;;;;4.53;2.75;;;;;;;22.98;38.05;102518.41;5004604;28;20214;-25
2022/05/01 10:59:46;;;;;;;4.38;2.80;;;;;;;22.91;37.86;102517.31;5040608;28;20057;-26
2022/05/01 11:02:31;;;;;;;3.05;2.13;;;;;;;22.85;37.89;102521.50;5058591;28;20084;-27
2022/05/01 11:05:00;;;;;;;3.67;2.67;;;;;;;22.86;38.24;102506.94;5041504;28;20060;-25
2022/05/01 11:07:29;;;;;;;4.28;1.98;;;;;;;22.94;38.40;102506.06;5049524;28;20459;-33
2022/05/01 11:09:59;;;;;;;4.20;2.30;;;;;;;22.91;38.67;102514.47;5055070;28;20037;-26
2022/05/01 11:12:28;;;;;;;2.88;1.73;;;;;;;22.77;38.63;102514.72;5062778;28;20041;-27
2022/05/01 11:14:57;;;;;;;5.18;2.33;;;;;;;22.55;38.77;102504.38;5064082;28;20053;-27
2022/05/01 11:18:01;;;;;;;3.03;1.90;;;;;;;22.37;37.97;102508.47;5049129;28;20483;-25
2022/05/01 11:20:32;;;;;;;3.75;2.20;;;;;;;22.31;39.32;102498.44;5042636;28;20490;-24
2022/05/01 11:23:33;;;;;;;3.88;2.20;;;;;;;22.38;38.05;102493.09;5059673;28;20052;-30
2022/05/01 11:26:09;;;;;;;3.67;2.28;;;;;;;22.27;38.82;102495.44;5051629;28;20048;-26
2022/05/01 11:29:09;;;;;;;3.28;1.92;;;;;;;22.23;38.21;102496.44;5062359;28;20041;-28
2022/05/01 11:31:47;;;;;;;3.88;2.03;;;;;;;22.20;39.31;102494.28;5051592;28;20049;-30
2022/05/01 11:34:34;;;;;;;3.65;2.65;;;;;;;22.28;38.44;102490.59;5061922;28;20139;-27
2022/05/01 11:37:05;;;;;;;3.00;1.75;;;;;;;22.25;39.13;102489.25;5041819;28;20050;-26
2022/05/01 11:40:26;;;;;;;2.88;2.13;;;;;;;22.40;38.66;102478.50;5046598;28;20041;-28
2022/05/01 11:43:15;;;;;;;2.08;1.60;;;;;;;22.59;38.10;102478.91;5060869;28;20041;-32
2022/05/01 11:45:45;;;;;;;3.22;2.25;;;;;;;22.77;38.65;102472.00;5059579;28;20058;-32
2022/05/01 11:48:14;;;;;;;3.15;1.90;;;;;;;22.93;38.48;102477.94;5048154;28;20135;-34
2022/05/01 11:50:43;;;;;;;3.05;2.28;;;;;;;22.98;38.41;102472.06;5051781;28;20040;-33
2022/05/01 11:53:23;;;;;;;4.03;2.22;;;;;;;23.01;37.58;102472.16;5047567;28;20063;-29
2022/05/01 12:04:28;;;;;;;2.85;2.00;;;;;;;23.08;36.79;102460.25;5060016;28;20529;-29
2022/05/01 12:07:00;;;;;;;3.35;2.28;;;;;;;23.18;37.40;102456.16;5051937;28;20041;-31
2022/05/01 12:09:31;;;;;;;2.80;1.65;;;;;;;23.23;37.17;102453.94;5044811;28;20044;-26
2022/05/01 12:11:59;;;;;;;3.22;1.95;;;;;;;23.29;37.12;102451.72;5053674;28;20045;-34